Musselburgh, United Kingdom
Current Conditions -  °F | °C
As of 11:20 PM on Thursday 20 Nov 2014 (Local Time) from EGPH Reporting Station
Light Fog Light Fog  
Wind Chill: 34°   Ceiling: Unl
Heat Index: 34°   Visibility: 6mi
Dew Point: 34°   Wind: 0mph
Humidity: 100%   Direction: NA
Pressure: 30.27"   Gusts: NA
Location:  55.94°N, 3.05°W
Report Text: EGPH 202320Z 00000KT 9999 R06/1100 MIFG NSC 01/01 Q1025
Loading
Personal Weather Stations






























Interactive Weather Map New forecast layout! Learn more

10-Day Weather Forecast

Advertisements
Track Severe Weather on mobile